createdAt,value
2022-12-11T00:01:43.933Z,100948.13
2022-12-11T00:05:06.422Z,100943.78
2022-12-11T00:08:27.813Z,100945.53
2022-12-11T00:11:50.913Z,100943.66
2022-12-11T00:15:13.173Z,100944.63
2022-12-11T00:18:34.986Z,100945.66
2022-12-11T00:21:57.538Z,100937.75
2022-12-11T00:25:20.011Z,100944.94
2022-12-11T00:28:43.438Z,100943.09
2022-12-11T00:32:05.307Z,100945.03
2022-12-11T00:35:27.010Z,100952.72
2022-12-11T00:38:49.885Z,100947.81
2022-12-11T00:42:11.818Z,100948.63
2022-12-11T00:45:38.880Z,100947.97
2022-12-11T00:49:00.841Z,100951.34
2022-12-11T00:52:24.731Z,100939.19
2022-12-11T00:55:46.919Z,100942.63
2022-12-11T00:59:09.178Z,100953.19
2022-12-11T01:02:32.230Z,100943.53
2022-12-11T01:05:55.269Z,100939.91
2022-12-11T01:09:34.127Z,100949.53
2022-12-11T01:12:58.740Z,100952.06
2022-12-11T01:16:20.583Z,100953.09
2022-12-11T01:19:43.719Z,100959.34
2022-12-11T01:23:05.492Z,100957.50
2022-12-11T01:26:27.324Z,100960.22
2022-12-11T01:29:49.614Z,100949.19
2022-12-11T01:33:11.707Z,100953.59
2022-12-11T01:36:34.805Z,100951.38
2022-12-11T01:39:56.618Z,100956.22
2022-12-11T01:43:18.540Z,100951.59
2022-12-11T01:46:41.130Z,100953.19
2022-12-11T01:50:03.110Z,100951.59
2022-12-11T01:53:30.377Z,100945.38
2022-12-11T01:56:54.355Z,100938.91
2022-12-11T02:00:17.124Z,100941.22
2022-12-11T02:03:38.788Z,100940.31
2022-12-11T02:07:00.722Z,100935.97
2022-12-11T02:10:29.221Z,100939.16
2022-12-11T02:13:56.553Z,100935.59
2022-12-11T02:17:23.314Z,100922.75
2022-12-11T02:20:52.995Z,100933.00
2022-12-11T02:24:32.156Z,100931.06
2022-12-11T02:28:07.293Z,100930.00
2022-12-11T02:31:33.963Z,100930.66
2022-12-11T02:35:03.964Z,100939.19
2022-12-11T02:38:29.782Z,100926.69
2022-12-11T02:41:52.615Z,100931.78
2022-12-11T02:45:17.687Z,100941.44
2022-12-11T02:48:41.685Z,100927.53
2022-12-11T02:52:07.344Z,100921.56
2022-12-11T02:55:30.492Z,100924.72
2022-12-11T02:58:58.722Z,100923.91
2022-12-11T03:02:22.230Z,100917.69
2022-12-11T03:05:46.186Z,100919.44
2022-12-11T03:09:08.956Z,100921.69
2022-12-11T03:12:33.999Z,100919.94
2022-12-11T03:16:08.534Z,100927.91
2022-12-11T03:19:36.699Z,100923.41
2022-12-11T03:23:05.882Z,100928.94
2022-12-11T03:26:28.066Z,100918.47
2022-12-11T03:29:57.224Z,100916.66
2022-12-11T03:33:25.261Z,100911.53
2022-12-11T03:36:49.962Z,100918.47
2022-12-11T03:40:16.039Z,100924.59
2022-12-11T03:43:39.674Z,100923.13
2022-12-11T03:47:03.898Z,100923.81
2022-12-11T03:50:29.374Z,100925.88
2022-12-11T03:53:54.296Z,100930.94
2022-12-11T03:57:19.134Z,100920.94
2022-12-11T04:00:41.050Z,100914.06
2022-12-11T04:04:03.012Z,100924.16
2022-12-11T04:07:24.994Z,100924.41
2022-12-11T04:10:48.894Z,100929.56
2022-12-11T04:14:30.070Z,100940.28
2022-12-11T04:18:09.098Z,100930.63
2022-12-11T04:21:48.059Z,100934.31
2022-12-11T04:25:10.315Z,100939.59
2022-12-11T04:28:33.492Z,100940.69
2022-12-11T04:31:55.473Z,100946.81
2022-12-11T04:35:17.994Z,100942.16
2022-12-11T04:38:40.187Z,100941.34
2022-12-11T04:42:01.902Z,100943.47
2022-12-11T04:45:25.503Z,100950.09
2022-12-11T04:48:50.199Z,100948.34
2022-12-11T04:52:16.058Z,100947.66
2022-12-11T04:55:37.923Z,100942.31
2022-12-11T04:58:59.276Z,100952.06
2022-12-11T05:02:22.115Z,100955.72
2022-12-11T05:05:50.651Z,100945.50
2022-12-11T05:09:12.838Z,100941.94
2022-12-11T05:12:34.857Z,100949.56
2022-12-11T05:15:57.462Z,100949.31
2022-12-11T05:19:20.627Z,100951.66
2022-12-11T05:22:42.391Z,100945.88
2022-12-11T05:26:06.523Z,100943.91
2022-12-11T05:29:28.482Z,100935.31
2022-12-11T05:32:50.029Z,100928.50
2022-12-11T05:36:17.706Z,100922.22
2022-12-11T05:39:40.082Z,100916.88
2022-12-11T05:43:02.182Z,100915.44
2022-12-11T05:46:25.642Z,100911.78
2022-12-11T05:49:47.809Z,100907.38
2022-12-11T05:53:10.760Z,100918.50
2022-12-11T05:56:35.285Z,100920.16
2022-12-11T05:59:56.710Z,100903.50
2022-12-11T06:03:18.724Z,100904.19
2022-12-11T06:06:41.042Z,100896.31
2022-12-11T06:10:03.940Z,100904.59
2022-12-11T06:13:25.882Z,100906.19
2022-12-11T06:16:47.764Z,100905.63
2022-12-11T06:20:10.370Z,100901.16
2022-12-11T06:23:31.907Z,100910.53
2022-12-11T06:26:54.875Z,100915.94
2022-12-11T06:30:16.932Z,100906.28
2022-12-11T06:33:39.016Z,100913.34
2022-12-11T06:37:01.174Z,100906.56
2022-12-11T06:40:22.946Z,100896.94
2022-12-11T06:43:46.061Z,100903.16
2022-12-11T06:47:07.783Z,100902.44
2022-12-11T06:50:29.731Z,100897.53
2022-12-11T06:53:53.340Z,100909.19
2022-12-11T06:57:15.294Z,100913.81
2022-12-11T07:00:38.895Z,100923.47
2022-12-11T07:04:01.674Z,100924.59
2022-12-11T07:07:23.538Z,100925.69
2022-12-11T07:10:45.142Z,100932.63
2022-12-11T07:14:06.909Z,100932.03
2022-12-11T07:17:31.368Z,100926.13
2022-12-11T07:20:53.327Z,100923.03
2022-12-11T07:24:15.042Z,100916.25
2022-12-11T07:27:36.931Z,100913.22
2022-12-11T07:30:58.910Z,100905.41
2022-12-11T07:34:22.303Z,100913.63
2022-12-11T07:37:45.910Z,100910.09
2022-12-11T07:41:09.528Z,100915.53
2022-12-11T07:44:31.374Z,100914.16
2022-12-11T07:47:53.589Z,100914.31
2022-12-11T07:51:19.312Z,100926.19
2022-12-11T07:54:41.431Z,100922.56
2022-12-11T07:58:03.133Z,100925.88
2022-12-11T08:01:27.218Z,100928.34
2022-12-11T08:04:49.988Z,100930.88
2022-12-11T08:08:12.747Z,100935.16
2022-12-11T08:11:34.750Z,100927.53
2022-12-11T08:14:56.612Z,100925.53
2022-12-11T08:18:18.128Z,100931.53
2022-12-11T08:21:40.390Z,100930.63
2022-12-11T08:25:03.819Z,100934.41
2022-12-11T08:28:27.170Z,100941.22
2022-12-11T08:31:48.787Z,100931.56
2022-12-11T08:35:10.956Z,100928.84
2022-12-11T08:38:32.869Z,100943.59
2022-12-11T08:41:57.152Z,100939.06
2022-12-11T08:45:19.084Z,100936.91
2022-12-11T08:48:43.041Z,100932.91
2022-12-11T08:52:06.102Z,100938.03
2022-12-11T08:55:27.845Z,100930.56
2022-12-11T08:58:51.814Z,100944.53
2022-12-11T09:02:14.073Z,100942.66
2022-12-11T09:05:35.618Z,100943.63
2022-12-11T09:09:00.450Z,100951.47
2022-12-11T09:12:22.351Z,100945.75
2022-12-11T09:15:45.532Z,100945.09
2022-12-11T09:19:09.354Z,100938.47
2022-12-11T09:22:33.362Z,100946.09
2022-12-11T09:25:55.450Z,100933.03
2022-12-11T09:29:17.079Z,100943.22
2022-12-11T09:32:40.779Z,100942.56
2022-12-11T09:36:03.658Z,100940.63
2022-12-11T09:39:25.553Z,100926.63
2022-12-11T09:42:54.254Z,100915.09
2022-12-11T09:46:17.936Z,100914.66
2022-12-11T09:49:45.017Z,100924.16
2022-12-11T09:53:13.728Z,100913.28
2022-12-11T09:56:43.547Z,100919.09
2022-12-11T10:00:15.113Z,100919.00
2022-12-11T10:03:59.553Z,100907.75
2022-12-11T10:07:32.163Z,100900.59
2022-12-11T10:11:02.172Z,100905.81
2022-12-11T10:14:31.988Z,100904.09
2022-12-11T10:18:01.312Z,100898.00
2022-12-11T10:21:27.885Z,100899.44
2022-12-11T10:25:10.667Z,100880.91
2022-12-11T10:28:33.379Z,100875.28
2022-12-11T10:31:58.425Z,100877.66
2022-12-11T10:35:28.958Z,100869.13
2022-12-11T10:38:50.936Z,100867.31
2022-12-11T10:42:19.482Z,100865.44
2022-12-11T10:45:41.161Z,100860.91
2022-12-11T10:49:03.229Z,100856.50
2022-12-11T10:52:27.033Z,100848.72
2022-12-11T10:55:50.307Z,100846.56
2022-12-11T10:59:24.183Z,100841.97
2022-12-11T11:02:46.614Z,100843.56
2022-12-11T11:06:17.245Z,100842.38
2022-12-11T11:09:39.774Z,100839.31
2022-12-11T11:13:03.127Z,100840.59
2022-12-11T11:16:26.939Z,100830.81
2022-12-11T11:19:49.926Z,100822.09
2022-12-11T11:23:16.362Z,100817.91
2022-12-11T11:27:11.809Z,100820.34
2022-12-11T11:30:23.160Z,100812.19
2022-12-11T11:33:56.725Z,100810.72
2022-12-11T11:37:31.413Z,100804.00
2022-12-11T11:41:02.467Z,100797.47
2022-12-11T11:44:32.660Z,100792.66
2022-12-11T11:48:07.737Z,100789.06
2022-12-11T11:51:38.936Z,100781.84
2022-12-11T11:55:10.306Z,100785.72
2022-12-11T11:58:41.094Z,100780.16
2022-12-11T12:02:03.527Z,100783.53
2022-12-11T12:05:36.215Z,100771.56
2022-12-11T12:09:09.157Z,100769.56
2022-12-11T12:12:43.897Z,100767.56
2022-12-11T12:16:43.783Z,100770.06
2022-12-11T12:20:05.598Z,100768.03
2022-12-11T12:23:45.598Z,100767.25
2022-12-11T12:27:50.660Z,100776.59
2022-12-11T12:31:17.404Z,100776.22
2022-12-11T12:34:53.686Z,100775.19
2022-12-11T12:38:23.001Z,100765.50
2022-12-11T12:41:55.202Z,100779.25
2022-12-11T12:45:27.677Z,100767.25
2022-12-11T12:48:50.080Z,100768.16
2022-12-11T12:52:16.748Z,100767.19
2022-12-11T12:55:40.532Z,100772.44
2022-12-11T12:59:02.033Z,100768.81
2022-12-11T13:02:25.613Z,100763.19
2022-12-11T13:05:57.911Z,100768.88
2022-12-11T13:09:23.583Z,100768.22
2022-12-11T13:12:47.358Z,100767.78
2022-12-11T13:16:25.456Z,100759.91
2022-12-11T13:19:50.119Z,100754.59
2022-12-11T13:23:29.624Z,100746.09
2022-12-11T13:26:51.989Z,100760.25
2022-12-11T13:30:24.892Z,100748.50
2022-12-11T13:33:50.594Z,100752.06
2022-12-11T13:37:25.994Z,100757.75
2022-12-11T13:40:54.155Z,100751.59
2022-12-11T13:44:22.842Z,100747.31
2022-12-11T13:47:46.054Z,100752.31
2022-12-11T13:51:08.272Z,100748.69
2022-12-11T13:54:33.384Z,100750.47
2022-12-11T13:57:55.351Z,100751.25
2022-12-11T14:01:22.012Z,100758.16
2022-12-11T14:04:44.264Z,100756.22
2022-12-11T14:08:10.462Z,100760.81
2022-12-11T14:11:38.014Z,100759.84
2022-12-11T14:15:03.160Z,100761.34
2022-12-11T14:18:27.463Z,100756.59
2022-12-11T14:22:03.175Z,100755.06
2022-12-11T14:25:28.070Z,100741.78
2022-12-11T14:28:51.800Z,100744.13
2022-12-11T14:32:21.482Z,100745.78
2022-12-11T14:35:45.243Z,100740.53
2022-12-11T14:39:15.106Z,100738.63
2022-12-11T14:42:42.027Z,100739.41
2022-12-11T14:46:10.064Z,100734.16
2022-12-11T14:49:42.003Z,100740.22
2022-12-11T14:53:09.226Z,100734.91
2022-12-11T14:56:32.047Z,100746.59
2022-12-11T14:59:57.583Z,100744.50
2022-12-11T15:03:25.762Z,100745.31
2022-12-11T15:06:49.011Z,100745.69
2022-12-11T15:10:27.287Z,100738.75
2022-12-11T15:13:55.052Z,100743.53
2022-12-11T15:17:17.606Z,100745.78
2022-12-11T15:20:41.744Z,100740.53
2022-12-11T15:24:07.113Z,100740.31
2022-12-11T15:27:35.575Z,100747.13
2022-12-11T15:30:59.554Z,100746.88
2022-12-11T15:34:23.423Z,100751.97
2022-12-11T15:37:54.044Z,100753.56
2022-12-11T15:41:17.140Z,100744.34
2022-12-11T15:44:39.006Z,100748.66
2022-12-11T15:48:00.948Z,100751.00
2022-12-11T15:51:22.949Z,100760.50
2022-12-11T15:54:46.414Z,100759.72
2022-12-11T15:58:14.808Z,100762.13
2022-12-11T16:01:37.189Z,100755.03
2022-12-11T16:04:59.148Z,100760.28
2022-12-11T16:08:23.201Z,100755.03
2022-12-11T16:11:46.250Z,100762.59
2022-12-11T16:15:09.319Z,100759.06
2022-12-11T16:18:31.714Z,100779.47
2022-12-11T16:21:53.869Z,100766.06
2022-12-11T16:25:16.063Z,100755.53
2022-12-11T16:28:39.287Z,100764.69
2022-12-11T16:32:00.904Z,100751.75
2022-12-11T16:35:23.579Z,100755.78
2022-12-11T16:38:52.860Z,100747.34
2022-12-11T16:42:14.968Z,100752.16
2022-12-11T16:45:39.185Z,100745.53
2022-12-11T16:49:00.757Z,100747.31
2022-12-11T16:52:22.545Z,100741.84
2022-12-11T16:55:44.258Z,100739.81
2022-12-11T16:59:06.675Z,100742.88
2022-12-11T17:02:29.556Z,100743.91
2022-12-11T17:05:51.058Z,100743.59
2022-12-11T17:09:12.967Z,100740.31
2022-12-11T17:12:34.946Z,100729.25
2022-12-11T17:15:56.904Z,100737.91
2022-12-11T17:19:24.263Z,100741.84
2022-12-11T17:22:46.054Z,100733.56
2022-12-11T17:26:09.091Z,100732.69
2022-12-11T17:29:30.633Z,100732.69
2022-12-11T17:32:52.520Z,100739.25
2022-12-11T17:36:18.261Z,100729.44
2022-12-11T17:39:39.926Z,100727.94
2022-12-11T17:43:06.268Z,100727.88
2022-12-11T17:46:28.306Z,100733.78
2022-12-11T17:49:50.192Z,100728.53
2022-12-11T17:53:15.199Z,100722.38
2022-12-11T17:56:37.568Z,100729.31
2022-12-11T17:59:59.667Z,100724.13
2022-12-11T18:03:21.898Z,100720.88
2022-12-11T18:06:43.937Z,100717.06
2022-12-11T18:10:07.855Z,100721.47
2022-12-11T18:13:29.631Z,100718.84
2022-12-11T18:16:52.619Z,100719.75
2022-12-11T18:20:16.115Z,100725.66
2022-12-11T18:23:37.802Z,100734.22
2022-12-11T18:27:01.158Z,100729.91
2022-12-11T18:30:24.130Z,100726.63
2022-12-11T18:33:47.022Z,100730.38
2022-12-11T18:37:09.071Z,100725.25
2022-12-11T18:40:31.322Z,100736.81
2022-12-11T18:43:55.033Z,100723.44
2022-12-11T18:47:17.330Z,100722.56
2022-12-11T18:50:39.079Z,100724.88
2022-12-11T18:54:01.043Z,100729.97
2022-12-11T18:57:22.942Z,100729.13
2022-12-11T19:00:46.731Z,100729.91
2022-12-11T19:04:10.960Z,100731.47
2022-12-11T19:07:32.892Z,100731.47
2022-12-11T19:10:54.708Z,100731.28
2022-12-11T19:14:16.702Z,100738.97
2022-12-11T19:17:39.602Z,100741.50
2022-12-11T19:21:08.559Z,100731.75
2022-12-11T19:25:03.151Z,100740.44
2022-12-11T19:28:25.727Z,100734.28
2022-12-11T19:31:47.955Z,100726.38
2022-12-11T19:35:15.107Z,100720.19
2022-12-11T19:38:37.234Z,100727.13
2022-12-11T19:41:59.260Z,100734.06
2022-12-11T19:45:21.379Z,100725.28
2022-12-11T19:48:43.749Z,100729.66
2022-12-11T19:52:06.890Z,100729.66
2022-12-11T19:55:28.919Z,100730.44
2022-12-11T19:58:50.926Z,100730.38
2022-12-11T20:02:12.882Z,100726.84
2022-12-11T20:05:34.878Z,100731.16
2022-12-11T20:08:57.993Z,100731.81
2022-12-11T20:12:20.074Z,100724.78
2022-12-11T20:15:42.129Z,100717.78
2022-12-11T20:19:05.086Z,100716.00
2022-12-11T20:22:26.827Z,100722.03
2022-12-11T20:25:53.399Z,100727.34
2022-12-11T20:29:19.250Z,100722.13
2022-12-11T20:32:41.372Z,100724.66
2022-12-11T20:36:03.244Z,100714.25
2022-12-11T20:39:26.612Z,100708.00
2022-12-11T20:42:49.641Z,100707.13
2022-12-11T20:46:14.735Z,100701.78
2022-12-11T20:49:37.084Z,100703.50
2022-12-11T20:52:58.782Z,100710.53
2022-12-11T20:56:21.024Z,100712.28
2022-12-11T20:59:44.381Z,100710.72
2022-12-11T21:03:06.489Z,100713.38
2022-12-11T21:06:31.763Z,100711.63
2022-12-11T21:09:53.590Z,100711.69
2022-12-11T21:13:16.684Z,100711.69
2022-12-11T21:16:40.088Z,100713.59
2022-12-11T21:20:01.924Z,100728.69
2022-12-11T21:23:23.589Z,100737.59
2022-12-11T21:26:46.717Z,100743.06
2022-12-11T21:30:09.174Z,100736.25
2022-12-11T21:33:32.458Z,100726.69
2022-12-11T21:36:56.913Z,100736.41
2022-12-11T21:40:19.130Z,100740.06
2022-12-11T21:44:00.471Z,100740.72
2022-12-11T21:47:24.634Z,100734.28
2022-12-11T21:50:47.964Z,100728.91
2022-12-11T21:54:14.246Z,100730.53
2022-12-11T21:57:35.944Z,100727.69
2022-12-11T22:00:57.699Z,100717.84
2022-12-11T22:04:19.526Z,100719.78
2022-12-11T22:07:43.021Z,100724.88
2022-12-11T22:11:05.973Z,100722.94
2022-12-11T22:14:28.262Z,100710.56
2022-12-11T22:17:49.799Z,100706.13
2022-12-11T22:21:11.897Z,100697.34
2022-12-11T22:24:34.957Z,100702.72
2022-12-11T22:27:56.820Z,100707.19
2022-12-11T22:31:21.317Z,100708.56
2022-12-11T22:34:42.922Z,100697.09
2022-12-11T22:38:05.346Z,100695.25
2022-12-11T22:41:29.999Z,100696.06
2022-12-11T22:44:51.953Z,100688.47
2022-12-11T22:48:14.306Z,100697.75
2022-12-11T22:51:36.635Z,100686.34
2022-12-11T22:54:58.374Z,100686.16
2022-12-11T22:58:22.117Z,100687.34
2022-12-11T23:01:44.074Z,100683.03
2022-12-11T23:05:06.529Z,100688.59
2022-12-11T23:08:28.325Z,100685.72
2022-12-11T23:11:50.394Z,100682.81
2022-12-11T23:15:14.136Z,100688.06
2022-12-11T23:18:35.943Z,100697.75
2022-12-11T23:21:57.873Z,100691.47
2022-12-11T23:25:20.583Z,100688.72
2022-12-11T23:28:42.964Z,100691.22
2022-12-11T23:32:06.641Z,100704.50
2022-12-11T23:35:28.311Z,100704.44
2022-12-11T23:38:54.498Z,100702.63
2022-12-11T23:42:16.973Z,100707.06
2022-12-11T23:45:38.365Z,100700.19
2022-12-11T23:49:01.391Z,100703.06
2022-12-11T23:52:23.946Z,100706.41
2022-12-11T23:55:46.743Z,100713.28
2022-12-11T23:59:08.252Z,100706.66
